Home   Weather   Mali i Perqarkës   Past weeks
Flag for Albania

Past Weather in Mali i Perqarkës, Albania — Yesterday and Last 2 Weeks

Currently: 27 °F. Clear. (Weather station: Tirana Airport, Albania). See more current weather

Past Weather in Mali i Perqarkës — Graph

°F

Mali i Perqarkës Temperature Yesterday

Maximum temperature yesterday: 41 °F (at 12:20 pm)
Minimum temperature yesterday: 21 °F (at 6:20 am)
Average temperature yesterday: 31 °F

High & Low Weather Summary for the Past Weeks

 TemperatureHumidityPressure
High63 °F (Jan 8, 1:20 pm)100% (Jan 7, 7:50 pm)30.21 "Hg (Jan 7, 7:50 pm)
Low21 °F (Jan 17, 6:20 am)22% (Jan 17, 3:20 pm)29.74 "Hg (Jan 4, 1:20 pm)
Average46 °F77%29.91 "Hg
* Reported Jan 3 8:20 pm — Jan 18 8:50 pm, Mali i Perqarkës. Weather by CustomWeather, © 2021

Note: Actual official high and low records may vary slightly from our data, if they occured in-between our weather recording intervals... More about our weather records

Mali i Perqarkës Weather History for the Previous 24 Hours

Scroll right to see more
 ConditionsComfort  
Time TempWeatherWind HumidityBarometerVisibility
8:50 pm
Mon, Jan 18
27 °FClear.1 mph74%30.21 "Hg10 mi
8:20 pm27 °FClear.2 mph74%30.21 "Hg10 mi
7:50 pm28 °FClear.3 mph69%30.18 "Hg10 mi
7:20 pm30 °FClear.3 mph64%30.18 "Hg10 mi
6:50 pm32 °FClear.5 mph51%30.18 "Hg10 mi
6:20 pm32 °FClear.7 mph51%30.15 "Hg10 mi
5:50 pm34 °FClear.7 mph51%30.15 "Hg10 mi
5:20 pm34 °FClear.8 mph51%30.15 "Hg10 mi
4:50 pm37 °FClear.9 mph45%30.15 "Hg10 mi
4:20 pm39 °FSunny.8 mph39%30.12 "Hg10 mi
3:50 pm41 °FSunny.9 mph33%30.12 "Hg10 mi
3:20 pm43 °FSunny.10 mph31%30.12 "Hg10 mi
2:50 pm43 °FPassing clouds.9 mph34%30.12 "HgN/A
2:20 pm45 °FSunny.10 mph31%30.12 "Hg10 mi
1:50 pm45 °FPassing clouds.5 mph27%30.09 "HgN/A
1:20 pm45 °FSunny.3 mph27%30.09 "Hg10 mi
12:50 pm45 °FSunny.3 mph27%30.12 "Hg10 mi
12:20 pm43 °FPassing clouds.6 mph34%30.12 "HgN/A
11:50 am43 °FSunny.6 mph34%30.12 "Hg10 mi
11:20 am41 °FPassing clouds.6 mph45%30.12 "HgN/A
10:50 am39 °FPassing clouds.5 mph48%30.12 "HgN/A
10:20 am37 °FSunny.2 mph56%30.12 "Hg10 mi
9:50 am36 °FSunny.1 mph60%30.12 "Hg10 mi
9:20 am32 °FSunny.2 mph64%30.12 "Hg10 mi
8:50 am32 °FSunny.No wind75%30.09 "Hg10 mi
8:20 am27 °FPassing clouds.5 mph86%30.09 "HgN/A
7:50 am23 °FSunny.2 mph86%30.09 "Hg10 mi
7:20 am21 °FSunny.2 mph86%30.09 "Hg10 mi
6:50 am23 °FClear.No wind86%30.07 "Hg10 mi
6:20 am23 °FClear.1 mph86%30.07 "Hg10 mi
5:50 am23 °FClear.2 mph86%30.07 "Hg10 mi
5:20 am21 °FClear.3 mph86%30.04 "Hg10 mi
4:50 am23 °FClear.2 mph86%30.04 "Hg10 mi
4:20 am25 °FClear.3 mph86%30.04 "Hg10 mi
3:50 am27 °FClear.2 mph80%30.04 "Hg10 mi
3:20 am23 °FClear.3 mph86%30.04 "Hg10 mi
2:50 am27 °FClear.2 mph80%30.04 "Hg10 mi
2:20 am27 °FPassing clouds.1 mph80%30.04 "HgN/A
1:50 am27 °FPassing clouds.1 mph86%30.04 "HgN/A
1:20 am28 °FPassing clouds.3 mph80%30.04 "HgN/A
12:50 am28 °FPassing clouds.2 mph74%30.04 "HgN/A
12:20 am30 °FPartly cloudy.5 mph75%30.04 "HgN/A
11:50 pm
Sun, Jan 17
32 °FPartly cloudy.2 mph64%30.04 "HgN/A
11:20 pm30 °FOvercast.2 mph80%30.04 "HgN/A
10:50 pm30 °FOvercast.2 mph75%30.04 "Hg5 mi
10:20 pm30 °FPartly cloudy.2 mph69%30.04 "Hg6 mi
Weather by CustomWeather, © 2021

See weather overview